Time;durP1;ratioP1;P1;durP2;ratioP2;P2;SDS_P1;SDS_P2;PMS_P1;PMS_P2;Temp;Humidity;BMP_temperature;BMP_pressure;BME280_temperature;BME280_humidity;BME280_pressure;Samples;Min_cycle;Max_cycle;Signal;HPM_P1;HPM_P2
2022/08/24 00:01:24;;;;;;;15.10;9.00;;;21.20;91.00;;;;;;5054356;28;20514;-79
2022/08/24 00:03:51;;;;;;;13.33;9.77;;;21.10;91.20;;;;;;5057228;28;20429;-79
2022/08/24 00:06:22;;;;;;;11.23;10.13;;;21.10;91.60;;;;;;5055804;28;20871;-79
2022/08/24 00:08:51;;;;;;;13.60;10.00;;;21.10;91.70;;;;;;5056580;28;20891;-80
2022/08/24 00:11:18;;;;;;;10.70;9.70;;;21.00;92.00;;;;;;5051441;28;20920;-79
2022/08/24 00:13:45;;;;;;;12.57;11.30;;;20.90;92.30;;;;;;5062281;28;20497;-79
2022/08/24 00:16:14;;;;;;;11.83;10.47;;;20.80;92.80;;;;;;5055856;28;20487;-79
2022/08/24 00:18:41;;;;;;;10.97;9.90;;;20.80;93.10;;;;;;5051655;28;20487;-79
2022/08/24 00:21:08;;;;;;;11.30;10.13;;;20.80;93.30;;;;;;5050827;28;20476;-79
2022/08/24 00:23:35;;;;;;;13.93;11.10;;;20.80;93.50;;;;;;5050893;28;20441;-79
2022/08/24 00:26:03;;;;;;;13.33;11.37;;;20.70;93.90;;;;;;5047335;28;20985;-80
2022/08/24 00:28:30;;;;;;;15.90;12.17;;;20.70;94.40;;;;;;5055020;28;20448;-80
2022/08/24 00:30:56;;;;;;;13.47;10.17;;;20.70;94.70;;;;;;5057446;28;20481;-80
2022/08/24 00:33:25;;;;;;;12.33;10.97;;;20.70;95.10;;;;;;5046022;28;20488;-79
2022/08/24 00:35:52;;;;;;;11.80;10.70;;;20.70;95.10;;;;;;5052107;28;20449;-81
2022/08/24 00:38:18;;;;;;;13.27;10.53;;;20.70;95.20;;;;;;5054354;28;20441;-80
2022/08/24 00:40:48;;;;;;;12.03;10.93;;;20.70;95.30;;;;;;5051537;28;20454;-80
2022/08/24 00:43:18;;;;;;;10.27;9.23;;;20.60;95.50;;;;;;5061599;28;20421;-80
2022/08/24 00:45:51;;;;;;;11.37;10.20;;;20.50;96.00;;;;;;5058541;28;20845;-79
2022/08/24 00:48:25;;;;;;;11.33;9.20;;;20.50;96.40;;;;;;5048223;28;20441;-79
2022/08/24 00:50:58;;;;;;;10.47;9.37;;;20.40;96.70;;;;;;5052678;28;20473;-79
2022/08/24 00:53:33;;;;;;;11.70;9.27;;;20.40;96.90;;;;;;5053053;28;20446;-79
2022/08/24 00:56:04;;;;;;;10.73;9.63;;;20.30;97.20;;;;;;5046241;28;20541;-79
2022/08/24 00:58:35;;;;;;;10.37;9.37;;;20.30;97.40;;;;;;5052193;28;20520;-79
2022/08/24 01:01:05;;;;;;;12.07;10.00;;;20.20;97.50;;;;;;5047063;28;20501;-79
2022/08/24 01:03:33;;;;;;;12.03;9.23;;;20.20;97.90;;;;;;5047496;28;20449;-80
2022/08/24 01:06:01;;;;;;;10.37;9.53;;;20.10;98.20;;;;;;5046175;28;20441;-79
2022/08/24 01:08:28;;;;;;;11.43;10.07;;;20.10;98.30;;;;;;5044519;28;20955;-80
2022/08/24 01:10:58;;;;;;;12.33;11.00;;;20.10;98.40;;;;;;5049378;28;20524;-80
2022/08/24 01:13:26;;;;;;;13.37;11.03;;;20.10;98.70;;;;;;5049927;28;20496;-82
2022/08/24 01:15:57;;;;;;;11.40;9.83;;;20.10;98.90;;;;;;5050140;28;20433;-80
2022/08/24 01:21:17;;;;;;;14.83;11.37;;;20.10;99.50;;;;;;5047721;28;20444;-79
2022/08/24 01:23:47;;;;;;;12.50;11.50;;;20.10;99.70;;;;;;5041380;28;21002;-79
2022/08/24 01:26:22;;;;;;;12.10;10.90;;;20.00;99.90;;;;;;5048870;28;20528;-79
2022/08/24 01:28:53;;;;;;;12.63;10.90;;;20.00;99.90;;;;;;5047535;28;20444;-79
2022/08/24 01:31:21;;;;;;;10.83;9.83;;;19.90;99.90;;;;;;5047252;28;20480;-79
2022/08/24 01:33:50;;;;;;;13.90;11.67;;;19.80;99.90;;;;;;5046988;28;20496;-79
2022/08/24 01:36:22;;;;;;;12.23;11.13;;;19.80;99.90;;;;;;5045684;28;20438;-79
2022/08/24 01:38:51;;;;;;;11.10;10.20;;;19.80;99.90;;;;;;5045486;28;20453;-79
2022/08/24 01:41:17;;;;;;;11.80;10.70;;;19.80;99.90;;;;;;5046407;28;20811;-79
2022/08/24 01:43:45;;;;;;;11.20;10.10;;;19.70;99.90;;;;;;5042079;28;20868;-79
2022/08/24 01:46:11;;;;;;;12.00;10.80;;;19.70;99.90;;;;;;5046679;28;20463;-79
2022/08/24 01:48:38;;;;;;;10.67;9.77;;;19.60;99.90;;;;;;5050678;28;20468;-79
2022/08/24 01:51:05;;;;;;;11.27;10.30;;;19.70;99.90;;;;;;5046199;28;20473;-79
2022/08/24 01:53:32;;;;;;;11.47;10.37;;;19.60;99.90;;;;;;5044242;28;20534;-79
2022/08/24 01:56:00;;;;;;;15.00;10.90;;;19.50;99.90;;;;;;5044825;28;20444;-79
2022/08/24 01:58:27;;;;;;;13.40;11.33;;;19.50;99.90;;;;;;5060457;28;20448;-79
2022/08/24 02:00:54;;;;;;;15.03;11.40;;;19.50;99.90;;;;;;5053515;28;20522;-78
2022/08/24 02:03:21;;;;;;;11.77;10.70;;;19.40;99.90;;;;;;5048621;28;20440;-78
2022/08/24 02:05:48;;;;;;;13.03;11.03;;;19.30;99.90;;;;;;5051569;28;20441;-79
2022/08/24 02:08:14;;;;;;;13.13;11.83;;;19.30;99.90;;;;;;5048325;28;21145;-79
2022/08/24 02:10:41;;;;;;;11.77;10.67;;;19.20;99.90;;;;;;5050759;28;20970;-79
2022/08/24 02:13:09;;;;;;;13.53;12.10;;;19.20;99.90;;;;;;5042846;28;21099;-79
2022/08/24 02:15:38;;;;;;;13.57;12.17;;;19.20;99.90;;;;;;5046252;28;20437;-79
2022/08/24 02:18:06;;;;;;;12.00;11.10;;;19.20;99.90;;;;;;5045153;28;20441;-79
2022/08/24 02:20:33;;;;;;;13.20;11.90;;;19.10;99.90;;;;;;5046407;28;20527;-79
2022/08/24 02:23:00;;;;;;;13.90;12.67;;;19.10;99.90;;;;;;5048460;28;20433;-79
2022/08/24 02:25:29;;;;;;;15.80;11.90;;;19.00;99.90;;;;;;5045209;28;20444;-79
2022/08/24 02:27:56;;;;;;;13.53;12.00;;;18.80;99.90;;;;;;5044197;28;20441;-79
2022/08/24 02:30:25;;;;;;;13.20;11.93;;;18.80;99.90;;;;;;5054477;28;20485;-79
2022/08/24 02:32:52;;;;;;;14.13;12.60;;;18.60;99.90;;;;;;5055002;28;20498;-79
2022/08/24 02:35:19;;;;;;;13.20;11.90;;;18.60;99.90;;;;;;5046182;28;20438;-79
2022/08/24 02:37:45;;;;;;;12.90;11.67;;;18.50;99.90;;;;;;5044161;28;20447;-79
2022/08/24 02:40:13;;;;;;;13.40;12.20;;;18.60;99.90;;;;;;5043571;28;20464;-79
2022/08/24 02:42:40;;;;;;;13.03;11.70;;;18.60;99.90;;;;;;5041666;28;20448;-79
2022/08/24 02:45:08;;;;;;;12.33;11.23;;;18.60;99.90;;;;;;5047573;28;20992;-79
2022/08/24 02:47:37;;;;;;;14.17;12.77;;;18.60;99.90;;;;;;5046980;28;20456;-79
2022/08/24 02:50:05;;;;;;;15.87;12.07;;;18.60;99.90;;;;;;5041275;28;20848;-79
2022/08/24 02:52:32;;;;;;;12.17;11.10;;;18.50;99.90;;;;;;5045277;28;20477;-79
2022/08/24 02:54:59;;;;;;;12.17;10.93;;;18.50;99.90;;;;;;5050236;28;20442;-79
2022/08/24 02:57:26;;;;;;;11.23;10.30;;;18.50;99.90;;;;;;5052290;28;20452;-79
2022/08/24 02:59:53;;;;;;;12.90;11.70;;;18.50;99.90;;;;;;5050396;28;20921;-78
2022/08/24 03:02:20;;;;;;;12.97;11.57;;;18.50;99.90;;;;;;5047685;28;20499;-79
2022/08/24 03:04:48;;;;;;;14.33;10.97;;;18.50;99.90;;;;;;5047365;28;20441;-79
2022/08/24 03:07:14;;;;;;;13.70;12.13;;;18.50;99.90;;;;;;5047509;28;20443;-79
2022/08/24 03:09:41;;;;;;;13.60;12.40;;;18.50;99.90;;;;;;5046998;28;20821;-79
2022/08/24 03:12:08;;;;;;;13.47;12.27;;;18.50;99.90;;;;;;5045431;28;20473;-79
2022/08/24 03:14:35;;;;;;;11.93;10.47;;;18.40;99.90;;;;;;5047782;28;20448;-79
2022/08/24 03:17:02;;;;;;;11.90;10.80;;;18.40;99.90;;;;;;5047065;28;20443;-79
2022/08/24 03:19:29;;;;;;;11.53;10.43;;;18.40;99.90;;;;;;5045397;28;20440;-79
2022/08/24 03:21:57;;;;;;;13.57;12.30;;;18.40;99.90;;;;;;5046645;28;20471;-79
2022/08/24 03:24:24;;;;;;;12.33;11.23;;;18.40;99.90;;;;;;5043498;28;20446;-79
2022/08/24 03:26:51;;;;;;;13.37;12.00;;;18.40;99.90;;;;;;5047598;28;20441;-79
2022/08/24 03:29:17;;;;;;;12.50;11.40;;;18.40;99.90;;;;;;5044238;28;21159;-78
2022/08/24 03:31:45;;;;;;;12.73;11.53;;;18.30;99.90;;;;;;5046674;28;20489;-78
2022/08/24 03:34:12;;;;;;;12.23;11.03;;;18.30;99.90;;;;;;5046246;28;20440;-79
2022/08/24 03:36:40;;;;;;;11.50;10.40;;;18.20;99.90;;;;;;5047970;28;20477;-79
2022/08/24 03:39:08;;;;;;;15.13;12.17;;;18.20;99.90;;;;;;5047512;28;20450;-79
2022/08/24 03:41:34;;;;;;;11.80;10.70;;;18.10;99.90;;;;;;5047478;28;20458;-79
2022/08/24 03:44:01;;;;;;;11.50;10.33;;;18.10;99.90;;;;;;5047157;28;20935;-79
2022/08/24 03:46:29;;;;;;;10.77;9.70;;;18.00;99.90;;;;;;5046337;28;20442;-79
2022/08/24 03:48:57;;;;;;;12.43;11.37;;;18.00;99.90;;;;;;5044083;28;20441;-79
2022/08/24 03:51:26;;;;;;;12.60;9.87;;;18.00;99.90;;;;;;5044992;28;20523;-79
2022/08/24 03:53:54;;;;;;;11.50;10.47;;;18.00;99.90;;;;;;5041184;28;20470;-79
2022/08/24 03:56:22;;;;;;;11.93;10.77;;;18.00;99.90;;;;;;5047865;28;20539;-79
2022/08/24 03:58:49;;;;;;;10.53;9.50;;;18.10;99.90;;;;;;5056065;28;20438;-79
2022/08/24 04:01:16;;;;;;;13.17;10.20;;;18.10;99.90;;;;;;5059264;28;20497;-79
2022/08/24 04:03:45;;;;;;;12.33;9.97;;;18.00;99.90;;;;;;5046495;28;20530;-79
2022/08/24 04:06:13;;;;;;;12.17;10.97;;;18.00;99.90;;;;;;5043350;28;20446;-79
2022/08/24 04:08:40;;;;;;;13.63;11.63;;;18.00;99.90;;;;;;5038983;28;20442;-79
2022/08/24 04:11:11;;;;;;;13.20;11.90;;;18.00;99.90;;;;;;5043202;28;20469;-79
2022/08/24 04:13:39;;;;;;;13.77;11.60;;;17.90;99.90;;;;;;5057584;28;20470;-79
2022/08/24 04:16:07;;;;;;;19.87;11.80;;;17.90;99.90;;;;;;5043942;28;20441;-79
2022/08/24 04:18:34;;;;;;;12.23;11.13;;;17.90;99.90;;;;;;5044019;28;20547;-79
2022/08/24 04:21:00;;;;;;;13.07;11.90;;;17.90;99.90;;;;;;5035061;28;20457;-78
2022/08/24 04:23:27;;;;;;;14.00;12.80;;;17.80;99.90;;;;;;5065850;28;20442;-79
2022/08/24 04:25:54;;;;;;;13.03;11.40;;;17.90;99.90;;;;;;5047283;28;20444;-79
2022/08/24 04:28:22;;;;;;;13.87;12.30;;;17.90;99.90;;;;;;5044615;28;20447;-79
2022/08/24 04:30:50;;;;;;;13.60;12.50;;;18.00;99.90;;;;;;5044107;28;20505;-79
2022/08/24 04:33:19;;;;;;;13.83;12.43;;;18.00;99.90;;;;;;5043647;28;20896;-79
2022/08/24 04:35:48;;;;;;;13.60;12.40;;;18.00;99.90;;;;;;5042701;28;20515;-79
2022/08/24 04:38:17;;;;;;;14.27;12.90;;;17.90;99.90;;;;;;5045092;28;20440;-79
2022/08/24 04:40:45;;;;;;;14.77;13.20;;;17.90;99.90;;;;;;5044839;28;20455;-79
2022/08/24 04:43:13;;;;;;;14.80;13.20;;;17.90;99.90;;;;;;5048659;28;20437;-78
2022/08/24 04:45:42;;;;;;;12.73;11.43;;;18.00;99.90;;;;;;5046081;28;21003;-79
2022/08/24 04:48:11;;;;;;;12.30;11.00;;;17.90;99.90;;;;;;5042539;28;20930;-79
2022/08/24 04:50:40;;;;;;;11.83;10.73;;;17.90;99.90;;;;;;5054045;28;20494;-79
2022/08/24 04:53:07;;;;;;;13.10;11.73;;;17.90;99.90;;;;;;5055954;28;20477;-79
2022/08/24 04:55:42;;;;;;;14.60;13.10;;;17.90;99.90;;;;;;5044572;28;20454;-79
2022/08/24 04:58:10;;;;;;;13.27;12.03;;;17.90;99.90;;;;;;5040786;28;20883;-79
2022/08/24 05:00:37;;;;;;;14.10;12.73;;;17.90;99.90;;;;;;5046807;28;20466;-79
2022/08/24 05:03:04;;;;;;;13.57;12.37;;;17.90;99.90;;;;;;5047237;28;20441;-79
2022/08/24 05:05:32;;;;;;;11.20;10.10;;;17.90;99.90;;;;;;5045021;28;20854;-79
2022/08/24 05:07:59;;;;;;;11.73;10.83;;;17.90;99.90;;;;;;5042552;28;20442;-79
2022/08/24 05:10:25;;;;;;;12.70;11.47;;;18.00;99.90;;;;;;5045673;28;20482;-79
2022/08/24 05:12:52;;;;;;;12.80;11.60;;;18.20;99.90;;;;;;5048007;28;21184;-80
2022/08/24 05:15:19;;;;;;;12.37;11.27;;;18.60;99.90;;;;;;5052818;28;20461;-80
2022/08/24 05:17:45;;;;;;;11.87;10.80;;;18.80;99.90;;;;;;5052161;28;20436;-80
2022/08/24 05:20:12;;;;;;;12.03;11.03;;;19.00;99.90;;;;;;5049994;28;20485;-80
2022/08/24 05:22:40;;;;;;;15.00;11.47;;;19.00;99.90;;;;;;5044869;28;20434;-80
2022/08/24 05:25:08;;;;;;;13.10;11.80;;;19.10;99.90;;;;;;5054527;28;20894;-80
2022/08/24 05:27:35;;;;;;;13.47;12.07;;;19.10;99.90;;;;;;5052614;28;20438;-79
2022/08/24 05:30:02;;;;;;;14.33;12.47;;;19.30;99.90;;;;;;5051305;28;20465;-80
2022/08/24 05:32:29;;;;;;;17.10;11.90;;;19.30;99.90;;;;;;5056057;28;20474;-80
2022/08/24 05:34:55;;;;;;;11.23;10.13;;;19.30;99.90;;;;;;5045111;28;20460;-79
2022/08/24 05:37:23;;;;;;;12.13;10.87;;;19.30;99.90;;;;;;5051591;28;20847;-79
2022/08/24 05:39:51;;;;;;;15.07;11.37;;;19.30;99.90;;;;;;5050153;28;20457;-79
2022/08/24 05:42:18;;;;;;;14.00;10.53;;;19.30;99.90;;;;;;5045978;28;20830;-79
2022/08/24 05:44:45;;;;;;;21.73;10.73;;;19.40;99.90;;;;;;5052600;28;20657;-79
2022/08/24 05:47:11;;;;;;;16.47;10.90;;;19.50;99.90;;;;;;5047266;28;20979;-79
2022/08/24 05:49:38;;;;;;;16.97;10.47;;;19.60;99.90;;;;;;5053027;28;20568;-79
2022/08/24 05:52:05;;;;;;;11.70;10.50;;;19.60;99.90;;;;;;5062985;28;20461;-79
2022/08/24 05:54:32;;;;;;;10.10;9.10;;;19.60;99.90;;;;;;5051002;28;20463;-79
2022/08/24 05:57:03;;;;;;;10.10;9.10;;;19.70;99.90;;;;;;5052791;28;20429;-79
2022/08/24 05:59:30;;;;;;;9.83;8.93;;;19.70;99.90;;;;;;5047234;28;20449;-79
2022/08/24 06:01:57;;;;;;;12.83;8.50;;;19.70;99.90;;;;;;5053488;28;20440;-80
2022/08/24 06:04:24;;;;;;;9.87;8.87;;;19.70;99.90;;;;;;5052377;28;20429;-80
2022/08/24 06:06:51;;;;;;;9.70;8.90;;;19.80;99.90;;;;;;5054364;28;20433;-79
2022/08/24 06:09:17;;;;;;;9.80;8.87;;;19.80;99.90;;;;;;5046109;28;20437;-79
2022/08/24 06:11:45;;;;;;;9.13;8.23;;;19.90;99.90;;;;;;5060592;28;20941;-80
2022/08/24 06:14:16;;;;;;;12.53;10.77;;;20.10;99.90;;;;;;5056009;28;20504;-79
2022/08/24 06:16:45;;;;;;;11.43;8.83;;;20.40;99.90;;;;;;5044780;28;20460;-80
2022/08/24 06:19:14;;;;;;;10.40;8.57;;;21.00;98.90;;;;;;5050312;28;20464;-80
2022/08/24 06:21:43;;;;;;;10.67;9.70;;;21.70;97.10;;;;;;5052042;28;20464;-80
2022/08/24 06:24:10;;;;;;;8.77;8.07;;;22.30;95.50;;;;;;5049794;28;20433;-80
2022/08/24 06:29:22;;;;;;;9.50;8.53;;;22.60;92.40;;;;;;5051847;28;20416;-80
2022/08/24 06:31:49;;;;;;;10.60;7.23;;;22.90;91.80;;;;;;5058902;28;20467;-81
2022/08/24 06:34:18;;;;;;;8.00;7.30;;;23.20;90.90;;;;;;5053401;28;20480;-81
2022/08/24 06:36:45;;;;;;;7.60;6.23;;;23.50;90.20;;;;;;5055841;28;20442;-79
2022/08/24 06:39:12;;;;;;;8.70;7.00;;;24.00;87.40;;;;;;5059368;28;20997;-79
2022/08/24 06:41:40;;;;;;;8.77;8.07;;;24.40;85.30;;;;;;5057119;28;20470;-80
2022/08/24 06:44:07;;;;;;;9.30;8.40;;;24.80;82.90;;;;;;5051481;28;20946;-79
2022/08/24 06:46:36;;;;;;;9.80;8.80;;;25.20;81.30;;;;;;5049553;28;21068;-79
2022/08/24 06:49:03;;;;;;;9.93;9.00;;;25.50;78.30;;;;;;5061116;28;20439;-79
2022/08/24 06:51:31;;;;;;;11.60;7.67;;;26.00;76.90;;;;;;5053967;28;20476;-79
2022/08/24 06:53:57;;;;;;;9.90;7.20;;;26.70;73.50;;;;;;5062111;28;20484;-80
2022/08/24 06:56:24;;;;;;;9.33;8.27;;;27.20;69.70;;;;;;5052596;28;20469;-79
2022/08/24 06:58:51;;;;;;;9.60;8.70;;;27.70;67.50;;;;;;5053630;28;20437;-79
2022/08/24 07:01:20;;;;;;;9.70;8.20;;;28.30;65.00;;;;;;5053390;28;20526;-80
2022/08/24 07:03:48;;;;;;;12.80;8.37;;;28.70;62.50;;;;;;5054502;28;20426;-80
2022/08/24 07:06:16;;;;;;;8.33;6.23;;;28.70;61.70;;;;;;5058655;28;20441;-80
2022/08/24 07:08:43;;;;;;;7.20;6.37;;;28.90;59.90;;;;;;5057644;28;20436;-80
2022/08/24 07:11:13;;;;;;;8.60;6.67;;;29.30;59.10;;;;;;5062497;28;20461;-82
2022/08/24 07:13:40;;;;;;;6.73;6.10;;;29.70;56.90;;;;;;5064880;28;20541;-81
2022/08/24 07:16:08;;;;;;;7.23;6.50;;;30.20;56.40;;;;;;5055449;28;20457;-80
2022/08/24 07:18:35;;;;;;;8.23;5.30;;;30.60;55.20;;;;;;5050628;28;20494;-80
2022/08/24 07:21:04;;;;;;;6.47;5.37;;;30.60;54.10;;;;;;5047414;28;20460;-81
2022/08/24 07:23:32;;;;;;;5.73;5.17;;;30.40;54.20;;;;;;5061829;28;20440;-80
2022/08/24 07:26:05;;;;;;;7.27;4.83;;;30.60;53.40;;;;;;5049518;28;20450;-80
2022/08/24 07:28:35;;;;;;;9.97;6.33;;;30.10;54.10;;;;;;5055677;28;20468;-81
2022/08/24 07:31:02;;;;;;;6.63;6.03;;;29.90;54.90;;;;;;5056603;28;20463;-80
2022/08/24 07:33:29;;;;;;;5.97;5.47;;;30.40;54.20;;;;;;5061635;28;20481;-79
2022/08/24 07:35:55;;;;;;;5.60;4.97;;;30.40;53.80;;;;;;5052389;28;20441;-80
2022/08/24 07:38:24;;;;;;;7.07;5.40;;;31.00;53.50;;;;;;5056397;28;20439;-81
2022/08/24 07:40:51;;;;;;;7.57;6.87;;;32.10;51.30;;;;;;5045176;28;20544;-81
2022/08/24 07:43:19;;;;;;;7.80;6.63;;;32.70;50.00;;;;;;5047164;28;20464;-80
2022/08/24 07:45:47;;;;;;;4.93;4.43;;;32.80;48.50;;;;;;5050785;28;20451;-79
2022/08/24 07:48:14;;;;;;;6.10;5.50;;;31.50;48.30;;;;;;5036513;28;20445;-78
2022/08/24 07:50:41;;;;;;;6.50;5.40;;;30.30;50.90;;;;;;5040219;28;20470;-81
2022/08/24 07:53:08;;;;;;;7.30;5.70;;;29.20;52.60;;;;;;5038377;28;20470;-81
2022/08/24 07:55:36;;;;;;;7.93;5.60;;;28.90;54.00;;;;;;5040839;28;20510;-80
2022/08/24 07:58:02;;;;;;;6.83;5.70;;;28.50;54.90;;;;;;5048899;28;20437;-81
2022/08/24 08:00:29;;;;;;;7.07;4.83;;;28.20;55.70;;;;;;5047706;28;20484;-81
2022/08/24 08:02:56;;;;;;;6.40;5.27;;;28.20;55.00;;;;;;5053552;28;20431;-80
2022/08/24 08:05:23;;;;;;;7.57;5.87;;;28.20;55.30;;;;;;5060911;28;20488;-87
2022/08/24 08:07:51;;;;;;;9.23;5.97;;;28.10;55.80;;;;;;5039158;28;20966;-87
2022/08/24 08:10:18;;;;;;;5.33;4.57;;;27.90;56.40;;;;;;5032713;28;20557;-86
2022/08/24 08:12:46;;;;;;;10.23;5.47;;;27.80;57.00;;;;;;5035759;28;20466;-86
2022/08/24 08:15:12;;;;;;;8.83;8.03;;;28.10;56.80;;;;;;5036493;28;20817;-85
2022/08/24 08:17:39;;;;;;;16.57;6.47;;;28.60;55.70;;;;;;5040433;28;20860;-85
2022/08/24 08:20:08;;;;;;;6.97;5.90;;;28.80;54.80;;;;;;5037158;28;20462;-87
2022/08/24 08:25:20;;;;;;;7.23;5.03;;;31.10;52.50;;;;;;5045717;28;20441;-85
2022/08/24 08:27:48;;;;;;;9.60;5.37;;;32.70;49.30;;;;;;5040547;28;20492;-86
2022/08/24 08:30:15;;;;;;;6.10;5.60;;;33.80;47.30;;;;;;5037368;28;20466;-85
2022/08/24 08:32:42;;;;;;;5.60;4.10;;;33.50;46.20;;;;;;5036026;28;20455;-85
2022/08/24 08:35:09;;;;;;;5.10;4.13;;;32.60;45.80;;;;;;5037209;28;20569;-86
2022/08/24 08:37:36;;;;;;;7.13;4.20;;;33.80;44.80;;;;;;5041855;28;20454;-85
2022/08/24 08:40:05;;;;;;;8.50;4.80;;;34.20;43.50;;;;;;5048866;28;20486;-86
2022/08/24 08:43:00;;;;;;;6.73;4.80;;;34.50;44.10;;;;;;5038003;28;20948;-86
2022/08/24 08:45:43;;;;;;;8.80;4.20;;;34.30;43.90;;;;;;5051149;28;20937;-87
2022/08/24 08:48:54;;;;;;;4.97;4.23;;;35.30;42.50;;;;;;5043573;28;20449;-87
2022/08/24 08:52:05;;;;;;;5.20;3.93;;;36.00;40.20;;;;;;5047644;28;20807;-88
2022/08/24 08:54:44;;;;;;;4.13;3.67;;;36.20;39.60;;;;;;5022303;28;20479;-87
2022/08/24 08:57:32;;;;;;;4.20;3.80;;;37.10;38.40;;;;;;5044454;28;20798;-85
2022/08/24 09:00:17;;;;;;;7.57;4.50;;;38.90;36.20;;;;;;5042216;28;20461;-85
2022/08/24 09:03:15;;;;;;;5.50;3.87;;;40.50;34.10;;;;;;5043416;28;20455;-87
2022/08/24 09:06:05;;;;;;;3.90;2.73;;;41.10;31.70;;;;;;5066237;28;20437;-88
2022/08/24 09:08:48;;;;;;;5.23;3.60;;;40.50;31.70;;;;;;5055983;28;20448;-87
2022/08/24 09:11:23;;;;;;;6.00;2.77;;;41.10;30.40;;;;;;5061298;28;20461;-87
2022/08/24 09:14:17;;;;;;;3.13;2.50;;;41.10;29.60;;;;;;5065313;28;20466;-87
2022/08/24 09:16:59;;;;;;;5.73;3.10;;;40.60;29.80;;;;;;5050356;28;20911;-86
2022/08/24 09:19:43;;;;;;;3.70;2.63;;;41.40;29.70;;;;;;5043793;28;20509;-87
2022/08/24 09:22:13;;;;;;;2.60;2.40;;;41.00;28.70;;;;;;5050521;28;20447;-87
2022/08/24 09:25:01;;;;;;;2.47;2.00;;;40.30;29.30;;;;;;5049426;28;20500;-86
2022/08/24 09:27:41;;;;;;;3.03;2.50;;;40.80;29.30;;;;;;5046179;28;20438;-86
2022/08/24 09:30:11;;;;;;;3.03;2.30;;;42.10;28.40;;;;;;5017166;28;20496;-85
2022/08/24 09:32:55;;;;;;;2.60;2.40;;;41.30;28.40;;;;;;5030301;28;20446;-86
2022/08/24 09:35:31;;;;;;;2.63;2.43;;;42.10;27.90;;;;;;5042883;28;20520;-86
2022/08/24 09:38:00;;;;;;;2.50;2.30;;;42.50;27.70;;;;;;5048663;28;20423;-86
2022/08/24 09:40:44;;;;;;;2.73;2.37;;;42.40;27.60;;;;;;5068264;28;20445;-86
2022/08/24 09:43:55;;;;;;;2.40;2.20;;;42.10;27.40;;;;;;5067683;28;20422;-87
2022/08/24 09:46:51;;;;;;;2.70;2.50;;;42.00;27.60;;;;;;5060690;28;20438;-86
2022/08/24 09:49:49;;;;;;;2.60;2.40;;;41.40;28.10;;;;;;5063520;28;20429;-86
2022/08/24 09:52:53;;;;;;;2.50;2.30;;;40.70;28.10;;;;;;5047392;28;20454;-86
2022/08/24 09:55:50;;;;;;;2.40;2.20;;;40.60;28.20;;;;;;5046507;28;20472;-86
2022/08/24 09:58:29;;;;;;;8.73;2.57;;;39.50;29.50;;;;;;5045320;28;20968;-86
2022/08/24 10:01:05;;;;;;;2.30;2.10;;;40.10;29.00;;;;;;5055519;28;20445;-85
2022/08/24 10:03:49;;;;;;;2.40;1.83;;;40.70;28.70;;;;;;5064676;28;20448;-85
2022/08/24 10:06:28;;;;;;;3.13;2.33;;;40.90;28.70;;;;;;5042559;28;20483;-86
2022/08/24 10:09:17;;;;;;;2.40;2.20;;;42.20;27.50;;;;;;5047262;28;20434;-86
2022/08/24 10:11:55;;;;;;;2.30;2.10;;;42.90;26.70;;;;;;5058055;28;20457;-86
2022/08/24 10:14:40;;;;;;;2.93;2.67;;;44.20;25.90;;;;;;5051911;28;20563;-85
2022/08/24 10:17:17;;;;;;;3.13;2.80;;;43.00;26.20;;;;;;5046551;28;20447;-86
2022/08/24 10:20:02;;;;;;;2.30;2.10;;;42.00;27.10;;;;;;5051530;28;20448;-86
2022/08/24 10:22:51;;;;;;;2.53;2.33;;;41.60;27.20;;;;;;5044008;28;20456;-86
2022/08/24 10:25:30;;;;;;;2.50;2.30;;;41.10;27.40;;;;;;5037901;28;20446;-85
2022/08/24 10:28:05;;;;;;;2.30;2.00;;;40.20;28.50;;;;;;5040190;28;20979;-87
2022/08/24 10:30:56;;;;;;;2.87;2.17;;;40.80;28.70;;;;;;5054515;28;20476;-87
2022/08/24 10:33:27;;;;;;;2.80;2.60;;;41.90;28.00;;;;;;5055086;28;20444;-87
2022/08/24 10:36:17;;;;;;;2.53;2.00;;;43.50;26.50;;;;;;5055612;28;20445;-86
2022/08/24 10:43:32;;;;;;;3.60;2.50;;;45.00;25.20;;;;;;5059264;28;20451;-86
2022/08/24 10:45:16;;;;;;;3.70;3.40;;;44.10;25.40;;;;;;5060234;28;21058;-88
2022/08/24 10:47:58;;;;;;;2.10;1.90;;;42.00;26.50;;;;;;5057244;28;21000;-86
2022/08/24 10:50:31;;;;;;;2.30;2.10;;;41.90;27.30;;;;;;5057606;28;20560;-86
2022/08/24 10:53:14;;;;;;;2.87;2.67;;;40.90;27.90;;;;;;5057990;28;20968;-86
2022/08/24 10:55:43;;;;;;;4.10;2.40;;;39.80;28.80;;;;;;5047713;28;20485;-86
2022/08/24 10:58:36;;;;;;;4.73;2.43;;;39.80;28.80;;;;;;5037970;28;20454;-86
2022/08/24 11:01:19;;;;;;;2.70;2.50;;;40.50;28.60;;;;;;5036082;28;20478;-86
2022/08/24 11:03:52;;;;;;;3.40;2.50;;;38.80;29.70;;;;;;5035928;28;20528;-86
2022/08/24 11:06:21;;;;;;;3.73;2.53;;;37.70;31.50;;;;;;5035450;28;20448;-85
2022/08/24 11:08:57;;;;;;;2.47;2.27;;;38.50;30.00;;;;;;5038617;28;20444;-85
2022/08/24 11:11:28;;;;;;;2.63;2.30;;;40.60;29.20;;;;;;5046563;28;20534;-85
2022/08/24 11:13:59;;;;;;;5.83;2.80;;;41.70;27.90;;;;;;5046600;28;20507;-85
2022/08/24 11:16:29;;;;;;;3.07;2.37;;;42.50;27.50;;;;;;5036419;28;20496;-86
2022/08/24 11:18:57;;;;;;;2.20;1.77;;;42.50;27.00;;;;;;5040850;28;20450;-86
2022/08/24 11:21:42;;;;;;;2.23;2.03;;;42.00;26.80;;;;;;5041489;28;20472;-85
2022/08/24 11:24:13;;;;;;;2.30;2.10;;;40.60;27.80;;;;;;5039014;28;20446;-86
2022/08/24 11:26:53;;;;;;;2.07;1.80;;;41.90;27.00;;;;;;5038915;28;20449;-86
2022/08/24 11:29:20;;;;;;;2.40;1.73;;;42.50;26.20;;;;;;5038983;28;20536;-86
2022/08/24 11:31:49;;;;;;;3.80;2.20;;;42.80;25.90;;;;;;5040996;28;20508;-85
2022/08/24 11:34:20;;;;;;;2.90;2.10;;;42.80;25.10;;;;;;5037473;28;20512;-85
2022/08/24 11:36:47;;;;;;;2.17;1.60;;;44.50;24.70;;;;;;5038806;28;20485;-85
2022/08/24 11:39:20;;;;;;;2.13;2.00;;;44.60;23.70;;;;;;5038963;28;20486;-86
2022/08/24 11:41:56;;;;;;;2.13;1.80;;;43.60;24.70;;;;;;5038035;28;20659;-87
2022/08/24 11:44:45;;;;;;;2.43;2.23;;;44.30;24.00;;;;;;5052521;28;20450;-89
2022/08/24 11:47:39;;;;;;;2.53;1.90;;;45.30;23.70;;;;;;5053367;28;20442;-86
2022/08/24 11:50:16;;;;;;;1.80;1.70;;;45.40;23.30;;;;;;5042237;28;20466;-86
2022/08/24 11:52:51;;;;;;;1.97;1.87;;;46.10;23.40;;;;;;5044983;28;21005;-85
2022/08/24 11:55:25;;;;;;;1.83;1.73;;;46.30;22.20;;;;;;5046784;28;20480;-86
2022/08/24 11:57:59;;;;;;;2.30;2.00;;;44.40;23.50;;;;;;5052489;28;20450;-86
2022/08/24 12:00:33;;;;;;;2.33;1.90;;;44.10;23.80;;;;;;5058798;28;20529;-85
2022/08/24 12:03:07;;;;;;;2.47;1.93;;;44.10;23.50;;;;;;5042144;28;20489;-86
2022/08/24 12:05:44;;;;;;;3.70;2.20;;;44.10;23.40;;;;;;5042125;28;20442;-81
2022/08/24 12:08:22;;;;;;;2.83;2.27;;;45.10;24.20;;;;;;5040586;28;20511;-81
2022/08/24 12:10:58;;;;;;;2.67;2.10;;;45.20;23.40;;;;;;5041845;28;20466;-84
2022/08/24 12:13:37;;;;;;;1.60;1.50;;;45.90;22.70;;;;;;5041109;28;20973;-85
2022/08/24 12:16:11;;;;;;;2.13;1.97;;;46.10;22.40;;;;;;5040839;28;20485;-85
2022/08/24 12:18:50;;;;;;;2.10;1.90;;;45.90;22.30;;;;;;5040422;28;20459;-85
2022/08/24 12:21:22;;;;;;;2.83;1.93;;;45.20;22.60;;;;;;5041708;28;20469;-85
2022/08/24 12:23:52;;;;;;;2.00;1.90;;;43.50;23.10;;;;;;5040340;28;20466;-85
2022/08/24 12:26:25;;;;;;;2.63;2.30;;;43.00;24.10;;;;;;5043442;28;20821;-85
2022/08/24 12:28:56;;;;;;;2.70;2.00;;;43.20;24.10;;;;;;5039753;28;20450;-85
2022/08/24 12:31:29;;;;;;;3.30;1.90;;;44.50;23.50;;;;;;5039023;28;20904;-85
2022/08/24 12:34:00;;;;;;;2.23;2.03;;;45.10;22.70;;;;;;5034198;28;21239;-85
2022/08/24 12:36:31;;;;;;;2.23;2.03;;;45.10;22.60;;;;;;5033280;28;20438;-85
2022/08/24 12:39:07;;;;;;;1.80;1.67;;;44.40;22.60;;;;;;5034560;28;20482;-85
2022/08/24 12:41:37;;;;;;;2.43;1.87;;;43.40;23.10;;;;;;5035360;28;20962;-86
2022/08/24 12:44:11;;;;;;;2.80;2.13;;;43.10;23.30;;;;;;5035478;28;20814;-85
2022/08/24 12:46:39;;;;;;;2.17;1.93;;;42.40;23.70;;;;;;5033416;28;20887;-85
2022/08/24 12:49:14;;;;;;;2.90;1.90;;;41.40;24.50;;;;;;5033820;28;20450;-85
2022/08/24 12:51:56;;;;;;;2.20;1.90;;;40.30;25.60;;;;;;5034842;28;20507;-85
2022/08/24 12:54:40;;;;;;;2.37;1.90;;;39.30;26.80;;;;;;5034236;28;20531;-85
2022/08/24 12:57:21;;;;;;;2.67;1.87;;;39.80;26.40;;;;;;5035504;28;20444;-84
2022/08/24 12:59:52;;;;;;;2.40;2.20;;;39.00;26.80;;;;;;5034014;28;20934;-85
2022/08/24 13:02:30;;;;;;;2.20;2.00;;;38.60;27.50;;;;;;5036897;28;20446;-85
2022/08/24 13:05:02;;;;;;;2.13;1.97;;;38.50;27.40;;;;;;5046380;28;20445;-85
2022/08/24 13:07:38;;;;;;;2.47;2.27;;;38.50;27.10;;;;;;5056572;28;20453;-85
2022/08/24 13:10:12;;;;;;;2.10;1.90;;;38.40;27.20;;;;;;5052085;28;20468;-86
2022/08/24 13:13:15;;;;;;;2.00;1.67;;;38.90;26.60;;;;;;5051047;28;20649;-86